sensor_id;sensor_type;location;lat;lon;timestamp;P1;durP1;ratioP1;P2;durP2;ratioP2
49183;SDS011;35021;49.214;12.270;2023-04-12T00:01:50;1.75;;;1.52;;
49183;SDS011;35021;49.214;12.270;2023-04-12T00:04:17;1.92;;;1.40;;
49183;SDS011;35021;49.214;12.270;2023-04-12T00:06:48;1.95;;;1.70;;
49183;SDS011;35021;49.214;12.270;2023-04-12T00:09:15;2.10;;;1.80;;
49183;SDS011;35021;49.214;12.270;2023-04-12T00:11:42;2.35;;;1.80;;
49183;SDS011;35021;49.214;12.270;2023-04-12T00:14:09;3.28;;;1.92;;
49183;SDS011;35021;49.214;12.270;2023-04-12T00:16:36;2.08;;;1.55;;
49183;SDS011;35021;49.214;12.270;2023-04-12T00:19:04;2.15;;;1.80;;
49183;SDS011;35021;49.214;12.270;2023-04-12T00:21:32;1.88;;;1.23;;
49183;SDS011;35021;49.214;12.270;2023-04-12T00:23:58;3.33;;;1.80;;
49183;SDS011;35021;49.214;12.270;2023-04-12T00:26:26;2.08;;;1.67;;
49183;SDS011;35021;49.214;12.270;2023-04-12T00:28:53;2.22;;;1.60;;
49183;SDS011;35021;49.214;12.270;2023-04-12T00:31:20;1.80;;;1.52;;
49183;SDS011;35021;49.214;12.270;2023-04-12T00:33:48;2.20;;;1.35;;
49183;SDS011;35021;49.214;12.270;2023-04-12T00:36:15;1.88;;;1.70;;
49183;SDS011;35021;49.214;12.270;2023-04-12T00:38:42;2.30;;;1.90;;
49183;SDS011;35021;49.214;12.270;2023-04-12T00:41:12;1.67;;;1.40;;
49183;SDS011;35021;49.214;12.270;2023-04-12T00:43:40;2.05;;;1.48;;
49183;SDS011;35021;49.214;12.270;2023-04-12T00:46:07;2.05;;;1.60;;
49183;SDS011;35021;49.214;12.270;2023-04-12T00:48:35;2.17;;;1.65;;
49183;SDS011;35021;49.214;12.270;2023-04-12T00:51:04;1.65;;;1.40;;
49183;SDS011;35021;49.214;12.270;2023-04-12T00:53:32;2.00;;;1.63;;
49183;SDS011;35021;49.214;12.270;2023-04-12T00:55:59;2.47;;;1.60;;
49183;SDS011;35021;49.214;12.270;2023-04-12T00:58:27;1.55;;;1.33;;
49183;SDS011;35021;49.214;12.270;2023-04-12T01:00:54;1.52;;;1.38;;
49183;SDS011;35021;49.214;12.270;2023-04-12T01:03:21;1.33;;;1.20;;
49183;SDS011;35021;49.214;12.270;2023-04-12T01:05:52;2.08;;;1.63;;
49183;SDS011;35021;49.214;12.270;2023-04-12T01:08:47;3.35;;;1.65;;
49183;SDS011;35021;49.214;12.270;2023-04-12T01:11:19;2.30;;;1.67;;
49183;SDS011;35021;49.214;12.270;2023-04-12T01:14:14;1.92;;;1.60;;
49183;SDS011;35021;49.214;12.270;2023-04-12T01:16:41;1.85;;;1.60;;
49183;SDS011;35021;49.214;12.270;2023-04-12T01:19:28;2.00;;;1.60;;
49183;SDS011;35021;49.214;12.270;2023-04-12T01:24:54;1.88;;;1.52;;
49183;SDS011;35021;49.214;12.270;2023-04-12T01:27:49;2.35;;;1.55;;
49183;SDS011;35021;49.214;12.270;2023-04-12T01:30:19;1.88;;;1.60;;
49183;SDS011;35021;49.214;12.270;2023-04-12T01:32:49;1.63;;;1.52;;
49183;SDS011;35021;49.214;12.270;2023-04-12T01:35:21;2.00;;;1.60;;
49183;SDS011;35021;49.214;12.270;2023-04-12T01:37:52;1.70;;;1.40;;
49183;SDS011;35021;49.214;12.270;2023-04-12T01:40:20;1.95;;;1.45;;
49183;SDS011;35021;49.214;12.270;2023-04-12T01:42:47;1.67;;;1.45;;
49183;SDS011;35021;49.214;12.270;2023-04-12T01:45:14;1.48;;;1.38;;
49183;SDS011;35021;49.214;12.270;2023-04-12T01:47:43;3.38;;;1.75;;
49183;SDS011;35021;49.214;12.270;2023-04-12T01:50:24;2.83;;;1.63;;
49183;SDS011;35021;49.214;12.270;2023-04-12T01:53:22;2.33;;;1.58;;
49183;SDS011;35021;49.214;12.270;2023-04-12T01:55:48;2.47;;;1.50;;
49183;SDS011;35021;49.214;12.270;2023-04-12T01:58:19;2.38;;;1.67;;
49183;SDS011;35021;49.214;12.270;2023-04-12T02:00:47;1.70;;;1.30;;
49183;SDS011;35021;49.214;12.270;2023-04-12T02:03:16;2.10;;;1.55;;
49183;SDS011;35021;49.214;12.270;2023-04-12T02:05:45;1.85;;;1.38;;
49183;SDS011;35021;49.214;12.270;2023-04-12T02:08:13;1.92;;;1.40;;
49183;SDS011;35021;49.214;12.270;2023-04-12T02:10:41;1.95;;;1.40;;
49183;SDS011;35021;49.214;12.270;2023-04-12T02:13:09;2.00;;;1.52;;
49183;SDS011;35021;49.214;12.270;2023-04-12T02:15:35;1.95;;;1.52;;
49183;SDS011;35021;49.214;12.270;2023-04-12T02:18:02;1.70;;;1.25;;
49183;SDS011;35021;49.214;12.270;2023-04-12T02:20:30;1.65;;;1.55;;
49183;SDS011;35021;49.214;12.270;2023-04-12T02:22:57;1.40;;;1.25;;
49183;SDS011;35021;49.214;12.270;2023-04-12T02:25:25;2.30;;;1.50;;
49183;SDS011;35021;49.214;12.270;2023-04-12T02:27:52;1.52;;;1.23;;
49183;SDS011;35021;49.214;12.270;2023-04-12T02:30:19;1.65;;;1.50;;
49183;SDS011;35021;49.214;12.270;2023-04-12T02:32:47;1.50;;;1.30;;
49183;SDS011;35021;49.214;12.270;2023-04-12T02:35:15;1.65;;;1.33;;
49183;SDS011;35021;49.214;12.270;2023-04-12T02:37:43;2.03;;;1.42;;
49183;SDS011;35021;49.214;12.270;2023-04-12T02:40:14;1.50;;;1.40;;
49183;SDS011;35021;49.214;12.270;2023-04-12T02:42:42;1.63;;;1.52;;
49183;SDS011;35021;49.214;12.270;2023-04-12T02:45:10;3.00;;;1.48;;
49183;SDS011;35021;49.214;12.270;2023-04-12T02:47:37;1.63;;;1.52;;
49183;SDS011;35021;49.214;12.270;2023-04-12T02:50:04;1.92;;;1.70;;
49183;SDS011;35021;49.214;12.270;2023-04-12T02:52:31;1.98;;;1.55;;
49183;SDS011;35021;49.214;12.270;2023-04-12T02:54:58;1.60;;;1.30;;
49183;SDS011;35021;49.214;12.270;2023-04-12T02:57:25;2.22;;;1.50;;
49183;SDS011;35021;49.214;12.270;2023-04-12T02:59:53;1.35;;;1.17;;
49183;SDS011;35021;49.214;12.270;2023-04-12T03:02:20;1.50;;;1.40;;
49183;SDS011;35021;49.214;12.270;2023-04-12T03:04:49;2.10;;;1.70;;
49183;SDS011;35021;49.214;12.270;2023-04-12T03:07:20;2.10;;;1.48;;
49183;SDS011;35021;49.214;12.270;2023-04-12T03:09:48;1.70;;;1.30;;
49183;SDS011;35021;49.214;12.270;2023-04-12T03:12:15;2.08;;;1.60;;
49183;SDS011;35021;49.214;12.270;2023-04-12T03:14:42;1.50;;;1.40;;
49183;SDS011;35021;49.214;12.270;2023-04-12T03:17:09;1.67;;;1.40;;
49183;SDS011;35021;49.214;12.270;2023-04-12T03:19:36;1.65;;;1.40;;
49183;SDS011;35021;49.214;12.270;2023-04-12T03:22:03;2.53;;;1.42;;
49183;SDS011;35021;49.214;12.270;2023-04-12T03:24:31;2.60;;;1.52;;
49183;SDS011;35021;49.214;12.270;2023-04-12T03:27:02;1.95;;;1.40;;
49183;SDS011;35021;49.214;12.270;2023-04-12T03:29:30;1.38;;;1.27;;
49183;SDS011;35021;49.214;12.270;2023-04-12T03:31:57;1.55;;;1.27;;
49183;SDS011;35021;49.214;12.270;2023-04-12T03:34:25;1.40;;;1.23;;
49183;SDS011;35021;49.214;12.270;2023-04-12T03:36:58;1.40;;;1.25;;
49183;SDS011;35021;49.214;12.270;2023-04-12T03:39:27;2.42;;;1.80;;
49183;SDS011;35021;49.214;12.270;2023-04-12T03:41:54;1.90;;;1.65;;
49183;SDS011;35021;49.214;12.270;2023-04-12T03:44:21;2.45;;;1.33;;
49183;SDS011;35021;49.214;12.270;2023-04-12T03:46:51;1.80;;;1.65;;
49183;SDS011;35021;49.214;12.270;2023-04-12T03:49:18;1.75;;;1.52;;
49183;SDS011;35021;49.214;12.270;2023-04-12T03:51:45;2.53;;;1.50;;
49183;SDS011;35021;49.214;12.270;2023-04-12T03:54:12;2.63;;;1.63;;
49183;SDS011;35021;49.214;12.270;2023-04-12T03:56:39;2.03;;;1.48;;
49183;SDS011;35021;49.214;12.270;2023-04-12T03:59:06;1.60;;;1.40;;
49183;SDS011;35021;49.214;12.270;2023-04-12T04:01:34;2.20;;;1.83;;
49183;SDS011;35021;49.214;12.270;2023-04-12T04:04:01;1.70;;;1.50;;
49183;SDS011;35021;49.214;12.270;2023-04-12T04:06:29;1.65;;;1.50;;
49183;SDS011;35021;49.214;12.270;2023-04-12T04:08:56;2.88;;;1.70;;
49183;SDS011;35021;49.214;12.270;2023-04-12T04:11:23;2.00;;;1.55;;
49183;SDS011;35021;49.214;12.270;2023-04-12T04:13:51;1.40;;;1.27;;
49183;SDS011;35021;49.214;12.270;2023-04-12T04:16:18;2.15;;;1.67;;
49183;SDS011;35021;49.214;12.270;2023-04-12T04:18:45;2.15;;;1.60;;
49183;SDS011;35021;49.214;12.270;2023-04-12T04:21:12;1.67;;;1.48;;
49183;SDS011;35021;49.214;12.270;2023-04-12T04:23:39;2.10;;;1.70;;
49183;SDS011;35021;49.214;12.270;2023-04-12T04:26:10;2.25;;;1.55;;
49183;SDS011;35021;49.214;12.270;2023-04-12T04:28:37;2.88;;;1.48;;
49183;SDS011;35021;49.214;12.270;2023-04-12T04:31:07;2.22;;;1.85;;
49183;SDS011;35021;49.214;12.270;2023-04-12T04:33:36;2.95;;;1.40;;
49183;SDS011;35021;49.214;12.270;2023-04-12T04:36:04;1.77;;;1.50;;
49183;SDS011;35021;49.214;12.270;2023-04-12T04:38:35;1.50;;;1.33;;
49183;SDS011;35021;49.214;12.270;2023-04-12T04:41:02;1.40;;;1.30;;
49183;SDS011;35021;49.214;12.270;2023-04-12T04:43:29;3.55;;;1.40;;
49183;SDS011;35021;49.214;12.270;2023-04-12T04:45:57;2.22;;;1.30;;
49183;SDS011;35021;49.214;12.270;2023-04-12T04:48:24;3.95;;;1.20;;
49183;SDS011;35021;49.214;12.270;2023-04-12T04:50:51;1.35;;;1.23;;
49183;SDS011;35021;49.214;12.270;2023-04-12T04:53:20;2.03;;;1.27;;
49183;SDS011;35021;49.214;12.270;2023-04-12T04:55:47;1.98;;;1.30;;
49183;SDS011;35021;49.214;12.270;2023-04-12T04:58:15;1.58;;;1.30;;
49183;SDS011;35021;49.214;12.270;2023-04-12T05:00:42;1.77;;;1.20;;
49183;SDS011;35021;49.214;12.270;2023-04-12T05:03:11;2.08;;;1.23;;
49183;SDS011;35021;49.214;12.270;2023-04-12T05:05:38;1.63;;;1.20;;
49183;SDS011;35021;49.214;12.270;2023-04-12T05:08:05;1.48;;;1.35;;
49183;SDS011;35021;49.214;12.270;2023-04-12T05:10:32;3.17;;;1.60;;
49183;SDS011;35021;49.214;12.270;2023-04-12T05:12:59;2.58;;;1.58;;
49183;SDS011;35021;49.214;12.270;2023-04-12T05:15:26;2.63;;;1.45;;
49183;SDS011;35021;49.214;12.270;2023-04-12T05:17:53;2.28;;;1.40;;
49183;SDS011;35021;49.214;12.270;2023-04-12T05:20:20;2.17;;;1.50;;
49183;SDS011;35021;49.214;12.270;2023-04-12T05:22:47;2.65;;;1.40;;
49183;SDS011;35021;49.214;12.270;2023-04-12T05:25:14;2.55;;;1.80;;
49183;SDS011;35021;49.214;12.270;2023-04-12T05:27:41;2.10;;;1.58;;
49183;SDS011;35021;49.214;12.270;2023-04-12T05:30:09;3.63;;;1.70;;
49183;SDS011;35021;49.214;12.270;2023-04-12T05:32:37;2.95;;;1.50;;
49183;SDS011;35021;49.214;12.270;2023-04-12T05:35:04;3.58;;;2.25;;
49183;SDS011;35021;49.214;12.270;2023-04-12T05:37:32;1.95;;;1.65;;
49183;SDS011;35021;49.214;12.270;2023-04-12T05:39:59;2.38;;;1.67;;
49183;SDS011;35021;49.214;12.270;2023-04-12T05:42:26;3.08;;;2.03;;
49183;SDS011;35021;49.214;12.270;2023-04-12T05:44:54;3.72;;;2.72;;
49183;SDS011;35021;49.214;12.270;2023-04-12T05:47:21;9.23;;;6.18;;
49183;SDS011;35021;49.214;12.270;2023-04-12T05:49:48;17.20;;;13.00;;
49183;SDS011;35021;49.214;12.270;2023-04-12T05:52:16;25.25;;;16.13;;
49183;SDS011;35021;49.214;12.270;2023-04-12T05:54:43;18.05;;;15.13;;
49183;SDS011;35021;49.214;12.270;2023-04-12T05:57:10;14.75;;;12.60;;
49183;SDS011;35021;49.214;12.270;2023-04-12T05:59:37;13.00;;;10.55;;
49183;SDS011;35021;49.214;12.270;2023-04-12T06:02:04;9.85;;;8.10;;
49183;SDS011;35021;49.214;12.270;2023-04-12T06:04:32;9.00;;;7.25;;
49183;SDS011;35021;49.214;12.270;2023-04-12T06:07:15;7.05;;;5.60;;
49183;SDS011;35021;49.214;12.270;2023-04-12T06:09:44;5.07;;;4.53;;
49183;SDS011;35021;49.214;12.270;2023-04-12T06:12:11;5.32;;;4.68;;
49183;SDS011;35021;49.214;12.270;2023-04-12T06:14:38;5.40;;;4.30;;
49183;SDS011;35021;49.214;12.270;2023-04-12T06:17:05;5.25;;;3.47;;
49183;SDS011;35021;49.214;12.270;2023-04-12T06:19:32;3.67;;;2.88;;
49183;SDS011;35021;49.214;12.270;2023-04-12T06:21:59;4.28;;;2.60;;
49183;SDS011;35021;49.214;12.270;2023-04-12T06:24:26;3.40;;;2.72;;
49183;SDS011;35021;49.214;12.270;2023-04-12T06:26:53;3.20;;;2.42;;
49183;SDS011;35021;49.214;12.270;2023-04-12T06:29:20;2.65;;;2.28;;
49183;SDS011;35021;49.214;12.270;2023-04-12T06:31:46;3.90;;;2.50;;
49183;SDS011;35021;49.214;12.270;2023-04-12T06:34:14;3.25;;;2.20;;
49183;SDS011;35021;49.214;12.270;2023-04-12T06:36:41;2.92;;;2.28;;
49183;SDS011;35021;49.214;12.270;2023-04-12T06:39:08;4.00;;;2.55;;
49183;SDS011;35021;49.214;12.270;2023-04-12T06:41:37;4.00;;;2.25;;
49183;SDS011;35021;49.214;12.270;2023-04-12T06:44:04;4.25;;;2.20;;
49183;SDS011;35021;49.214;12.270;2023-04-12T06:46:31;3.00;;;2.08;;
49183;SDS011;35021;49.214;12.270;2023-04-12T06:48:58;3.45;;;2.17;;
49183;SDS011;35021;49.214;12.270;2023-04-12T06:51:25;3.38;;;2.45;;
49183;SDS011;35021;49.214;12.270;2023-04-12T06:53:53;2.97;;;2.13;;
49183;SDS011;35021;49.214;12.270;2023-04-12T06:56:21;2.58;;;2.20;;
49183;SDS011;35021;49.214;12.270;2023-04-12T06:58:48;5.10;;;2.45;;
49183;SDS011;35021;49.214;12.270;2023-04-12T07:01:15;4.25;;;2.45;;
49183;SDS011;35021;49.214;12.270;2023-04-12T07:03:43;3.42;;;2.22;;
49183;SDS011;35021;49.214;12.270;2023-04-12T07:06:10;3.90;;;2.70;;
49183;SDS011;35021;49.214;12.270;2023-04-12T07:08:50;2.95;;;2.50;;
49183;SDS011;35021;49.214;12.270;2023-04-12T07:11:18;7.20;;;3.20;;
49183;SDS011;35021;49.214;12.270;2023-04-12T07:13:48;3.45;;;2.60;;
49183;SDS011;35021;49.214;12.270;2023-04-12T07:16:16;3.67;;;2.35;;
49183;SDS011;35021;49.214;12.270;2023-04-12T07:18:43;5.65;;;2.72;;
49183;SDS011;35021;49.214;12.270;2023-04-12T07:21:11;2.35;;;2.00;;
49183;SDS011;35021;49.214;12.270;2023-04-12T07:23:43;3.05;;;2.20;;
49183;SDS011;35021;49.214;12.270;2023-04-12T07:26:10;3.15;;;2.40;;
49183;SDS011;35021;49.214;12.270;2023-04-12T07:28:36;2.78;;;2.13;;
49183;SDS011;35021;49.214;12.270;2023-04-12T07:31:04;3.47;;;2.28;;
49183;SDS011;35021;49.214;12.270;2023-04-12T07:33:32;2.90;;;2.10;;
49183;SDS011;35021;49.214;12.270;2023-04-12T07:36:01;3.33;;;2.10;;
49183;SDS011;35021;49.214;12.270;2023-04-12T07:38:30;3.72;;;2.42;;
49183;SDS011;35021;49.214;12.270;2023-04-12T07:40:57;3.35;;;2.10;;
49183;SDS011;35021;49.214;12.270;2023-04-12T07:43:24;2.65;;;1.75;;
49183;SDS011;35021;49.214;12.270;2023-04-12T07:45:53;2.45;;;1.52;;
49183;SDS011;35021;49.214;12.270;2023-04-12T07:48:21;2.78;;;1.60;;
49183;SDS011;35021;49.214;12.270;2023-04-12T07:50:48;2.97;;;1.70;;
49183;SDS011;35021;49.214;12.270;2023-04-12T07:53:16;3.92;;;1.90;;
49183;SDS011;35021;49.214;12.270;2023-04-12T07:55:48;2.55;;;1.40;;
49183;SDS011;35021;49.214;12.270;2023-04-12T07:58:17;2.30;;;1.58;;
49183;SDS011;35021;49.214;12.270;2023-04-12T08:00:46;4.15;;;1.83;;
49183;SDS011;35021;49.214;12.270;2023-04-12T08:03:14;3.50;;;2.03;;
49183;SDS011;35021;49.214;12.270;2023-04-12T08:05:43;2.72;;;1.52;;
49183;SDS011;35021;49.214;12.270;2023-04-12T08:08:11;2.53;;;1.40;;
49183;SDS011;35021;49.214;12.270;2023-04-12T08:10:42;2.38;;;1.20;;
49183;SDS011;35021;49.214;12.270;2023-04-12T08:13:09;3.10;;;1.30;;
49183;SDS011;35021;49.214;12.270;2023-04-12T08:15:36;2.17;;;1.30;;
49183;SDS011;35021;49.214;12.270;2023-04-12T08:18:03;2.15;;;1.48;;
49183;SDS011;35021;49.214;12.270;2023-04-12T08:20:30;2.70;;;1.30;;
49183;SDS011;35021;49.214;12.270;2023-04-12T08:22:58;2.55;;;1.52;;
49183;SDS011;35021;49.214;12.270;2023-04-12T08:25:24;1.38;;;0.98;;
49183;SDS011;35021;49.214;12.270;2023-04-12T08:27:52;2.00;;;1.17;;
49183;SDS011;35021;49.214;12.270;2023-04-12T08:30:20;1.90;;;1.27;;
49183;SDS011;35021;49.214;12.270;2023-04-12T08:32:52;2.20;;;1.45;;
49183;SDS011;35021;49.214;12.270;2023-04-12T08:35:19;3.55;;;1.40;;
49183;SDS011;35021;49.214;12.270;2023-04-12T08:37:47;2.60;;;1.30;;
49183;SDS011;35021;49.214;12.270;2023-04-12T08:40:14;3.38;;;1.50;;
49183;SDS011;35021;49.214;12.270;2023-04-12T08:42:41;1.83;;;1.30;;
49183;SDS011;35021;49.214;12.270;2023-04-12T08:45:09;2.55;;;1.30;;
49183;SDS011;35021;49.214;12.270;2023-04-12T08:47:38;2.42;;;1.50;;
49183;SDS011;35021;49.214;12.270;2023-04-12T08:50:10;2.30;;;1.35;;
49183;SDS011;35021;49.214;12.270;2023-04-12T08:52:44;1.90;;;1.33;;
49183;SDS011;35021;49.214;12.270;2023-04-12T08:55:14;2.75;;;1.45;;
49183;SDS011;35021;49.214;12.270;2023-04-12T08:57:41;2.30;;;1.23;;
49183;SDS011;35021;49.214;12.270;2023-04-12T09:00:09;3.65;;;1.25;;
49183;SDS011;35021;49.214;12.270;2023-04-12T09:02:38;2.30;;;1.35;;
49183;SDS011;35021;49.214;12.270;2023-04-12T09:05:09;2.45;;;1.23;;
49183;SDS011;35021;49.214;12.270;2023-04-12T09:07:36;2.22;;;1.20;;
49183;SDS011;35021;49.214;12.270;2023-04-12T09:10:03;2.10;;;1.38;;
49183;SDS011;35021;49.214;12.270;2023-04-12T09:12:31;2.17;;;1.25;;
49183;SDS011;35021;49.214;12.270;2023-04-12T09:15:16;2.58;;;1.33;;
49183;SDS011;35021;49.214;12.270;2023-04-12T09:17:44;1.40;;;1.00;;
49183;SDS011;35021;49.214;12.270;2023-04-12T09:22:42;2.33;;;1.17;;
49183;SDS011;35021;49.214;12.270;2023-04-12T09:25:12;2.33;;;1.20;;
49183;SDS011;35021;49.214;12.270;2023-04-12T09:27:50;2.95;;;1.10;;
49183;SDS011;35021;49.214;12.270;2023-04-12T09:30:19;1.83;;;1.30;;
49183;SDS011;35021;49.214;12.270;2023-04-12T09:32:46;2.55;;;1.20;;
49183;SDS011;35021;49.214;12.270;2023-04-12T09:35:22;1.63;;;0.82;;
49183;SDS011;35021;49.214;12.270;2023-04-12T09:38:05;2.33;;;1.00;;
49183;SDS011;35021;49.214;12.270;2023-04-12T09:40:34;1.70;;;1.17;;
49183;SDS011;35021;49.214;12.270;2023-04-12T09:43:04;2.10;;;1.10;;
49183;SDS011;35021;49.214;12.270;2023-04-12T09:45:35;2.20;;;1.30;;
49183;SDS011;35021;49.214;12.270;2023-04-12T09:48:04;1.52;;;0.90;;
49183;SDS011;35021;49.214;12.270;2023-04-12T09:50:32;2.15;;;1.20;;
49183;SDS011;35021;49.214;12.270;2023-04-12T09:53:00;1.67;;;1.00;;
49183;SDS011;35021;49.214;12.270;2023-04-12T09:55:28;2.35;;;1.20;;
49183;SDS011;35021;49.214;12.270;2023-04-12T09:58:00;1.35;;;0.88;;
49183;SDS011;35021;49.214;12.270;2023-04-12T10:00:29;2.13;;;0.90;;
49183;SDS011;35021;49.214;12.270;2023-04-12T10:02:56;2.50;;;1.05;;
49183;SDS011;35021;49.214;12.270;2023-04-12T10:05:24;1.73;;;1.00;;
49183;SDS011;35021;49.214;12.270;2023-04-12T10:07:53;1.60;;;0.80;;
49183;SDS011;35021;49.214;12.270;2023-04-12T10:10:21;1.80;;;1.00;;
49183;SDS011;35021;49.214;12.270;2023-04-12T10:12:50;1.60;;;0.90;;
49183;SDS011;35021;49.214;12.270;2023-04-12T10:15:18;2.15;;;0.82;;
49183;SDS011;35021;49.214;12.270;2023-04-12T10:17:48;1.15;;;0.80;;
49183;SDS011;35021;49.214;12.270;2023-04-12T10:20:19;1.77;;;0.80;;
49183;SDS011;35021;49.214;12.270;2023-04-12T10:22:51;1.48;;;0.73;;
49183;SDS011;35021;49.214;12.270;2023-04-12T10:25:19;1.25;;;0.85;;
49183;SDS011;35021;49.214;12.270;2023-04-12T10:27:48;2.08;;;1.00;;
49183;SDS011;35021;49.214;12.270;2023-04-12T10:35:29;1.05;;;0.70;;
49183;SDS011;35021;49.214;12.270;2023-04-12T10:38:14;0.98;;;0.70;;
49183;SDS011;35021;49.214;12.270;2023-04-12T10:43:34;1.55;;;0.95;;
49183;SDS011;35021;49.214;12.270;2023-04-12T10:46:01;3.05;;;1.13;;
49183;SDS011;35021;49.214;12.270;2023-04-12T10:48:50;1.17;;;0.82;;
49183;SDS011;35021;49.214;12.270;2023-04-12T10:51:19;1.27;;;0.90;;
49183;SDS011;35021;49.214;12.270;2023-04-12T10:53:51;1.83;;;1.00;;
49183;SDS011;35021;49.214;12.270;2023-04-12T10:58:59;1.65;;;0.80;;
49183;SDS011;35021;49.214;12.270;2023-04-12T11:01:28;1.60;;;0.90;;
49183;SDS011;35021;49.214;12.270;2023-04-12T11:06:40;1.23;;;0.80;;
49183;SDS011;35021;49.214;12.270;2023-04-12T11:19:31;1.08;;;0.82;;
49183;SDS011;35021;49.214;12.270;2023-04-12T11:21:59;1.45;;;0.75;;
49183;SDS011;35021;49.214;12.270;2023-04-12T11:24:27;1.42;;;0.93;;
49183;SDS011;35021;49.214;12.270;2023-04-12T11:26:55;1.65;;;0.80;;
49183;SDS011;35021;49.214;12.270;2023-04-12T11:29:22;1.30;;;0.70;;
49183;SDS011;35021;49.214;12.270;2023-04-12T11:31:52;1.65;;;0.77;;
49183;SDS011;35021;49.214;12.270;2023-04-12T11:34:22;1.83;;;0.90;;
49183;SDS011;35021;49.214;12.270;2023-04-12T11:36:51;1.95;;;1.42;;
49183;SDS011;35021;49.214;12.270;2023-04-12T11:39:19;4.28;;;1.35;;
49183;SDS011;35021;49.214;12.270;2023-04-12T11:41:46;1.17;;;1.00;;
49183;SDS011;35021;49.214;12.270;2023-04-12T11:44:14;0.98;;;0.75;;
49183;SDS011;35021;49.214;12.270;2023-04-12T11:46:47;2.53;;;0.90;;
49183;SDS011;35021;49.214;12.270;2023-04-12T11:49:14;1.15;;;0.70;;
49183;SDS011;35021;49.214;12.270;2023-04-12T11:51:43;0.88;;;0.70;;
49183;SDS011;35021;49.214;12.270;2023-04-12T11:54:14;0.90;;;0.73;;
49183;SDS011;35021;49.214;12.270;2023-04-12T11:56:41;1.42;;;0.80;;
49183;SDS011;35021;49.214;12.270;2023-04-12T11:59:08;1.85;;;0.80;;
49183;SDS011;35021;49.214;12.270;2023-04-12T12:01:35;1.67;;;0.80;;
49183;SDS011;35021;49.214;12.270;2023-04-12T12:04:03;2.10;;;0.80;;
49183;SDS011;35021;49.214;12.270;2023-04-12T12:06:32;1.15;;;0.73;;
49183;SDS011;35021;49.214;12.270;2023-04-12T12:08:59;1.67;;;0.80;;
49183;SDS011;35021;49.214;12.270;2023-04-12T12:11:26;1.35;;;1.02;;
49183;SDS011;35021;49.214;12.270;2023-04-12T12:13:53;1.13;;;0.70;;
49183;SDS011;35021;49.214;12.270;2023-04-12T12:16:25;1.13;;;0.77;;
49183;SDS011;35021;49.214;12.270;2023-04-12T12:18:54;2.10;;;0.70;;
49183;SDS011;35021;49.214;12.270;2023-04-12T12:21:22;1.27;;;0.90;;
49183;SDS011;35021;49.214;12.270;2023-04-12T12:23:49;1.08;;;0.80;;
49183;SDS011;35021;49.214;12.270;2023-04-12T12:26:34;1.80;;;1.08;;
49183;SDS011;35021;49.214;12.270;2023-04-12T12:29:01;1.30;;;0.70;;
49183;SDS011;35021;49.214;12.270;2023-04-12T12:31:28;1.40;;;0.70;;
49183;SDS011;35021;49.214;12.270;2023-04-12T12:33:56;1.05;;;0.80;;
49183;SDS011;35021;49.214;12.270;2023-04-12T12:36:28;0.80;;;0.70;;
49183;SDS011;35021;49.214;12.270;2023-04-12T12:39:09;1.42;;;0.80;;
49183;SDS011;35021;49.214;12.270;2023-04-12T12:41:38;1.88;;;0.70;;
49183;SDS011;35021;49.214;12.270;2023-04-12T12:44:05;1.70;;;0.98;;
49183;SDS011;35021;49.214;12.270;2023-04-12T12:46:33;0.98;;;0.70;;
49183;SDS011;35021;49.214;12.270;2023-04-12T12:49:03;0.82;;;0.60;;
49183;SDS011;35021;49.214;12.270;2023-04-12T12:51:31;2.25;;;0.60;;
49183;SDS011;35021;49.214;12.270;2023-04-12T12:53:58;1.48;;;0.50;;
49183;SDS011;35021;49.214;12.270;2023-04-12T12:56:26;1.20;;;0.73;;
49183;SDS011;35021;49.214;12.270;2023-04-12T12:58:53;1.08;;;0.70;;
49183;SDS011;35021;49.214;12.270;2023-04-12T13:01:19;1.35;;;0.68;;
49183;SDS011;35021;49.214;12.270;2023-04-12T13:03:46;0.77;;;0.68;;
49183;SDS011;35021;49.214;12.270;2023-04-12T13:06:13;2.47;;;1.10;;
49183;SDS011;35021;49.214;12.270;2023-04-12T13:08:40;1.23;;;0.90;;
49183;SDS011;35021;49.214;12.270;2023-04-12T13:11:07;1.40;;;0.70;;
49183;SDS011;35021;49.214;12.270;2023-04-12T13:13:34;1.45;;;0.73;;
49183;SDS011;35021;49.214;12.270;2023-04-12T13:16:01;1.65;;;0.80;;
49183;SDS011;35021;49.214;12.270;2023-04-12T13:18:29;1.13;;;0.68;;
49183;SDS011;35021;49.214;12.270;2023-04-12T13:20:56;1.35;;;0.73;;
49183;SDS011;35021;49.214;12.270;2023-04-12T13:23:23;1.08;;;0.70;;
49183;SDS011;35021;49.214;12.270;2023-04-12T13:25:50;1.75;;;0.70;;
49183;SDS011;35021;49.214;12.270;2023-04-12T13:28:18;1.73;;;0.82;;
49183;SDS011;35021;49.214;12.270;2023-04-12T13:30:45;1.38;;;0.73;;
49183;SDS011;35021;49.214;12.270;2023-04-12T13:33:14;2.13;;;0.60;;
49183;SDS011;35021;49.214;12.270;2023-04-12T13:35:47;1.42;;;0.70;;
49183;SDS011;35021;49.214;12.270;2023-04-12T13:38:14;0.80;;;0.70;;
49183;SDS011;35021;49.214;12.270;2023-04-12T13:40:41;1.80;;;0.90;;
49183;SDS011;35021;49.214;12.270;2023-04-12T13:43:07;1.08;;;0.85;;
49183;SDS011;35021;49.214;12.270;2023-04-12T13:45:35;1.83;;;0.70;;
49183;SDS011;35021;49.214;12.270;2023-04-12T13:48:02;1.75;;;0.80;;
49183;SDS011;35021;49.214;12.270;2023-04-12T13:50:29;1.38;;;0.70;;
49183;SDS011;35021;49.214;12.270;2023-04-12T13:52:56;1.35;;;0.70;;
49183;SDS011;35021;49.214;12.270;2023-04-12T13:55:22;1.52;;;0.80;;
49183;SDS011;35021;49.214;12.270;2023-04-12T13:57:49;1.00;;;0.80;;
49183;SDS011;35021;49.214;12.270;2023-04-12T14:00:17;2.33;;;0.80;;
49183;SDS011;35021;49.214;12.270;2023-04-12T14:02:44;2.67;;;0.93;;
49183;SDS011;35021;49.214;12.270;2023-04-12T14:05:11;2.22;;;0.82;;
49183;SDS011;35021;49.214;12.270;2023-04-12T14:07:38;1.02;;;0.75;;
49183;SDS011;35021;49.214;12.270;2023-04-12T14:10:05;1.50;;;0.85;;
49183;SDS011;35021;49.214;12.270;2023-04-12T14:12:32;1.27;;;0.98;;
49183;SDS011;35021;49.214;12.270;2023-04-12T14:14:59;0.75;;;0.70;;
49183;SDS011;35021;49.214;12.270;2023-04-12T14:17:26;1.98;;;0.70;;
49183;SDS011;35021;49.214;12.270;2023-04-12T14:19:57;0.80;;;0.68;;
49183;SDS011;35021;49.214;12.270;2023-04-12T14:22:24;1.40;;;0.82;;
49183;SDS011;35021;49.214;12.270;2023-04-12T14:24:51;1.52;;;0.75;;
49183;SDS011;35021;49.214;12.270;2023-04-12T14:27:18;0.98;;;0.50;;
49183;SDS011;35021;49.214;12.270;2023-04-12T14:29:45;1.27;;;0.70;;
49183;SDS011;35021;49.214;12.270;2023-04-12T14:32:13;1.67;;;0.70;;
49183;SDS011;35021;49.214;12.270;2023-04-12T14:34:40;1.98;;;0.88;;
49183;SDS011;35021;49.214;12.270;2023-04-12T14:37:08;1.17;;;0.60;;
49183;SDS011;35021;49.214;12.270;2023-04-12T14:39:35;1.00;;;0.60;;
49183;SDS011;35021;49.214;12.270;2023-04-12T14:42:04;2.17;;;0.98;;
49183;SDS011;35021;49.214;12.270;2023-04-12T14:44:31;1.10;;;0.73;;
49183;SDS011;35021;49.214;12.270;2023-04-12T14:46:58;1.23;;;0.70;;
49183;SDS011;35021;49.214;12.270;2023-04-12T14:49:25;1.27;;;0.80;;
49183;SDS011;35021;49.214;12.270;2023-04-12T14:51:52;1.33;;;0.80;;
49183;SDS011;35021;49.214;12.270;2023-04-12T14:54:19;1.00;;;0.80;;
49183;SDS011;35021;49.214;12.270;2023-04-12T14:56:46;1.13;;;0.70;;
49183;SDS011;35021;49.214;12.270;2023-04-12T14:59:20;1.67;;;1.00;;
49183;SDS011;35021;49.214;12.270;2023-04-12T15:01:47;1.02;;;0.73;;
49183;SDS011;35021;49.214;12.270;2023-04-12T15:04:14;0.93;;;0.60;;
49183;SDS011;35021;49.214;12.270;2023-04-12T15:06:42;0.90;;;0.60;;
49183;SDS011;35021;49.214;12.270;2023-04-12T15:09:12;1.27;;;0.73;;
49183;SDS011;35021;49.214;12.270;2023-04-12T15:11:39;2.35;;;1.15;;